Terminal Aerodrome Forecast
Issued by NWS Louisville, KY

Home | Current Version | Previous Version | Text Only | Print | Product List | Glossary On
Versions: 1 2 3 4 5 6 7 8 9 10 11 12
000
FTUS43 KLMK 310520
TAFLEX
TAF
KLEX 310520Z 3106/0106 17004KT P6SM SCT100
     FM310900 00000KT 4SM BR FEW100
     FM311300 23004KT P6SM SCT040
     FM010300 VRB03KT P6SM FEW250=

USA.gov is the U.S. government's official web portal to all federal, state and local government web resources and services.